Terminal Aerodrome Forecast
Issued by NWS

Home | Current Version | Previous Version | Text Only | Print | Product List | Glossary Off
Versions: 1 2 3 4 5 6 7 8 9 10 11 12 13 14 15 16 17 18 19 20 21 22 23 24 25

000
FTUS43 KLOT 150302 AAA
TAFGYY
TAF AMD
KGYY 150302Z 1503/1524 22009KT 3/4SM BR OVC003
      TEMPO 1503/1505 1/4SM -DZ FG OVC002
     FM150500 23009KT 1/4SM -DZ FG OVC003
     FM151200 23007KT 3/4SM -DZ BR OVC003
     FM151800 26006KT 1 1/2SM -RA BR OVC004
     FM152300 32008KT 3SM BR OVC008=

USA.gov is the U.S. government's official web portal to all federal, state and local government web resources and services.